Time;durP1;ratioP1;P1;durP2;ratioP2;P2;SDS_P1;SDS_P2;PMS_P1;PMS_P2;Temp;Humidity;BMP_temperature;BMP_pressure;BME280_temperature;BME280_humidity;BME280_pressure;Samples;Min_cycle;Max_cycle;Signal;HPM_P1;HPM_P2
2021/12/24 00:01:58;;;;;;;55.03;30.33;;;6.80;99.90;;;;;;4964636;29;20531;-81
2021/12/24 00:04:24;;;;;;;52.60;29.25;;;6.90;99.90;;;;;;4948834;29;20035;-81
2021/12/24 00:06:51;;;;;;;55.30;28.08;;;6.80;99.90;;;;;;4948670;29;20035;-82
2021/12/24 00:09:23;;;;;;;54.63;31.38;;;6.90;99.90;;;;;;5014658;28;20482;-81
2021/12/24 00:11:50;;;;;;;54.35;32.22;;;6.90;99.90;;;;;;4991474;28;20178;-81
2021/12/24 00:14:16;;;;;;;52.78;28.90;;;6.90;99.90;;;;;;4991625;28;20026;-80
2021/12/24 00:16:47;;;;;;;51.72;29.17;;;6.90;99.90;;;;;;5007933;28;20442;-81
2021/12/24 00:19:36;;;;;;;48.50;27.15;;;7.00;99.90;;;;;;4991759;28;20029;-81
2021/12/24 00:35:35;;;;;;;72.72;38.00;;;7.10;99.90;;;;;;5031417;28;20029;-81
2021/12/24 00:38:06;;;;;;;64.25;34.38;;;7.20;99.90;;;;;;5014847;28;20049;-80
2021/12/24 00:40:38;;;;;;;56.95;30.17;;;7.10;99.90;;;;;;5029991;28;20029;-80
2021/12/24 00:43:03;;;;;;;55.03;30.55;;;7.10;99.90;;;;;;5050686;28;20041;-81
2021/12/24 00:45:35;;;;;;;51.80;29.83;;;7.20;99.90;;;;;;5034417;28;20052;-81
2021/12/24 00:48:02;;;;;;;55.95;29.70;;;7.20;99.90;;;;;;5050948;28;20044;-81
2021/12/24 00:50:32;;;;;;;57.55;31.02;;;7.20;99.90;;;;;;5051137;28;20067;-81
2021/12/24 00:53:04;;;;;;;53.60;28.92;;;7.20;99.90;;;;;;5034183;28;20029;-81
2021/12/24 00:55:32;;;;;;;54.00;27.63;;;7.20;99.90;;;;;;5051041;28;20052;-81
2021/12/24 00:58:00;;;;;;;50.88;25.92;;;7.20;99.90;;;;;;5034221;28;20033;-81
2021/12/24 01:00:38;;;;;;;54.13;29.75;;;7.30;99.90;;;;;;5034074;28;20021;-81
2021/12/24 01:03:07;;;;;;;52.47;27.67;;;7.30;99.90;;;;;;5070007;28;20127;-81
2021/12/24 01:05:35;;;;;;;49.75;26.85;;;7.30;99.90;;;;;;5070681;28;20021;-81
2021/12/24 01:08:01;;;;;;;52.13;27.70;;;7.30;99.90;;;;;;5053875;28;20056;-81
2021/12/24 01:10:30;;;;;;;52.47;29.50;;;7.30;99.90;;;;;;5070737;28;20028;-81
2021/12/24 01:12:56;;;;;;;46.50;25.90;;;7.40;99.90;;;;;;5053708;28;20092;-81
2021/12/24 01:15:22;;;;;;;53.03;28.23;;;7.40;99.90;;;;;;5053663;28;20032;-80
2021/12/24 01:20:25;;;;;;;54.47;29.45;;;7.40;99.90;;;;;;5070512;28;20035;-81
2021/12/24 01:25:41;;;;;;;50.15;27.58;;;7.40;99.90;;;;;;5088293;28;20028;-81
2021/12/24 01:28:38;;;;;;;47.83;26.45;;;7.40;99.90;;;;;;5053619;28;20271;-81
2021/12/24 01:40:05;;;;;;;47.38;26.92;;;7.40;99.90;;;;;;5069810;28;20033;-81
2021/12/24 01:42:47;;;;;;;52.22;29.35;;;7.50;99.90;;;;;;5069347;28;20097;-81
2021/12/24 01:45:18;;;;;;;48.40;28.13;;;7.60;99.90;;;;;;5069777;28;20040;-81
2021/12/24 01:47:44;;;;;;;49.03;25.23;;;7.60;99.90;;;;;;5069743;28;20058;-81
2021/12/24 01:50:11;;;;;;;44.88;25.70;;;7.70;99.90;;;;;;5053231;28;20024;-83
2021/12/24 01:52:38;;;;;;;46.25;26.95;;;7.70;99.90;;;;;;5052935;28;20029;-81
2021/12/24 01:55:05;;;;;;;47.78;26.67;;;7.70;99.90;;;;;;5052987;28;20032;-80
2021/12/24 01:57:32;;;;;;;41.25;24.17;;;7.80;99.90;;;;;;5069564;28;20028;-81
2021/12/24 01:59:59;;;;;;;46.53;26.55;;;7.80;99.90;;;;;;5069347;28;20017;-81
2021/12/24 02:02:25;;;;;;;40.28;22.92;;;7.80;99.90;;;;;;5069151;28;20127;-81
2021/12/24 02:04:50;;;;;;;48.05;25.58;;;7.80;99.90;;;;;;5052923;28;20408;-81
2021/12/24 02:07:16;;;;;;;40.97;22.77;;;7.80;99.90;;;;;;5069417;28;20477;-81
2021/12/24 02:09:42;;;;;;;42.08;23.50;;;7.80;99.90;;;;;;5069427;28;20029;-81
2021/12/24 02:12:09;;;;;;;44.47;25.23;;;7.90;99.90;;;;;;5069378;28;20032;-81
2021/12/24 02:14:38;;;;;;;47.20;25.50;;;7.90;99.90;;;;;;5069197;28;20610;-82
2021/12/24 02:17:26;;;;;;;42.70;25.33;;;8.10;99.90;;;;;;5052396;28;20032;-82
2021/12/24 02:30:51;;;;;;;42.58;24.33;;;8.20;99.90;;;;;;5068522;28;20425;-82
2021/12/24 02:33:17;;;;;;;48.78;27.80;;;8.20;99.90;;;;;;5052108;28;20036;-81
2021/12/24 02:35:43;;;;;;;48.63;27.20;;;8.40;99.90;;;;;;5052183;28;20036;-81
2021/12/24 02:38:09;;;;;;;41.50;23.20;;;8.40;99.90;;;;;;5052033;28;20024;-82
2021/12/24 02:40:35;;;;;;;46.30;25.23;;;8.30;99.90;;;;;;5052210;28;20052;-82
2021/12/24 02:43:02;;;;;;;39.97;22.85;;;8.30;99.90;;;;;;5068491;28;20040;-82
2021/12/24 02:45:31;;;;;;;44.28;24.08;;;8.30;99.90;;;;;;5068385;28;20067;-82
2021/12/24 02:56:02;;;;;;;48.17;24.95;;;8.50;99.90;;;;;;5068362;28;20060;-81
2021/12/24 02:58:46;;;;;;;54.25;24.85;;;8.40;99.90;;;;;;5068288;28;20039;-81
2021/12/24 03:01:16;;;;;;;49.65;24.73;;;8.50;99.90;;;;;;5068126;28;20028;-82
2021/12/24 03:03:48;;;;;;;63.53;29.98;;;8.60;99.90;;;;;;5051467;28;20054;-81
2021/12/24 03:06:15;;;;;;;77.47;32.60;;;8.70;99.90;;;;;;5068208;28;20043;-82
2021/12/24 03:08:40;;;;;;;69.32;29.95;;;8.60;99.90;;;;;;5068154;28;20043;-81
2021/12/24 03:11:06;;;;;;;63.90;29.30;;;8.60;99.90;;;;;;5051475;28;20056;-82
2021/12/24 03:13:33;;;;;;;71.43;29.23;;;8.60;99.90;;;;;;5051317;28;20044;-82
2021/12/24 03:16:00;;;;;;;64.63;28.98;;;8.60;99.90;;;;;;5051491;28;20028;-81
2021/12/24 03:18:28;;;;;;;68.68;32.33;;;8.70;99.90;;;;;;5051349;28;20032;-82
2021/12/24 03:21:46;;;;;;;78.38;35.80;;;8.70;99.90;;;;;;5067857;28;20032;-82
2021/12/24 03:24:33;;;;;;;79.75;35.80;;;8.70;99.90;;;;;;5062238;28;20048;-82
2021/12/24 03:26:37;;;;;;;71.90;30.63;;;8.70;99.90;;;;;;5067916;28;20036;-82
2021/12/24 03:29:09;;;;;;;76.25;34.80;;;8.70;99.90;;;;;;5051181;28;20178;-81
2021/12/24 03:31:37;;;;;;;83.57;35.22;;;8.70;99.90;;;;;;5067359;28;20052;-81
2021/12/24 03:34:06;;;;;;;82.90;36.72;;;8.70;99.90;;;;;;5051215;28;20044;-82
2021/12/24 03:36:32;;;;;;;86.72;39.78;;;8.70;99.90;;;;;;5051207;28;20079;-81
2021/12/24 03:38:58;;;;;;;90.80;38.20;;;8.70;99.90;;;;;;5051198;28;20487;-81
2021/12/24 03:41:25;;;;;;;90.15;39.42;;;8.70;99.90;;;;;;5051050;28;20123;-82
2021/12/24 03:43:53;;;;;;;82.22;35.42;;;8.80;99.90;;;;;;5051210;28;20032;-82
2021/12/24 03:46:25;;;;;;;87.72;38.08;;;8.70;99.90;;;;;;5051150;28;20388;-82
2021/12/24 03:51:27;;;;;;;88.63;39.13;;;8.80;99.90;;;;;;5067747;28;20035;-82
2021/12/24 03:56:39;;;;;;;84.00;37.38;;;8.80;99.90;;;;;;5068036;28;20454;-82
2021/12/24 03:59:06;;;;;;;76.20;35.75;;;8.80;99.90;;;;;;5066690;28;20024;-82
2021/12/24 04:02:07;;;;;;;81.95;35.42;;;8.80;99.90;;;;;;5072235;28;20066;-82
2021/12/24 04:04:35;;;;;;;80.30;36.40;;;8.90;99.90;;;;;;5068000;28;20029;-82
2021/12/24 04:07:20;;;;;;;78.28;35.88;;;8.90;99.90;;;;;;5070366;28;20130;-82
2021/12/24 04:10:04;;;;;;;75.63;33.53;;;8.90;99.90;;;;;;5085521;28;20043;-82
2021/12/24 04:13:06;;;;;;;75.03;34.05;;;8.80;99.90;;;;;;5071956;28;20028;-81
2021/12/24 04:15:31;;;;;;;72.15;33.33;;;8.80;99.90;;;;;;5050653;28;20059;-82
2021/12/24 04:17:57;;;;;;;62.38;32.05;;;8.90;99.90;;;;;;5050879;28;20032;-82
2021/12/24 04:25:55;;;;;;;61.53;30.20;;;8.90;99.90;;;;;;5067303;28;20044;-82
2021/12/24 04:28:21;;;;;;;64.10;29.27;;;8.90;99.90;;;;;;5050851;28;20025;-83
2021/12/24 04:30:51;;;;;;;54.30;29.13;;;8.90;99.90;;;;;;5050128;28;20072;-82
2021/12/24 04:33:32;;;;;;;58.00;28.65;;;8.90;99.90;;;;;;5067284;28;20029;-82
2021/12/24 04:36:22;;;;;;;51.58;26.63;;;8.90;99.90;;;;;;5050707;28;20033;-81
2021/12/24 04:53:27;;;;;;;54.97;24.88;;;8.90;99.90;;;;;;5066911;28;20054;-82
2021/12/24 05:01:31;;;;;;;50.83;23.15;;;8.90;99.90;;;;;;5066603;28;20059;-81
2021/12/24 05:04:00;;;;;;;39.05;20.00;;;8.90;99.90;;;;;;5050312;28;20127;-81
2021/12/24 05:06:33;;;;;;;37.10;19.00;;;8.90;99.90;;;;;;5050216;28;20276;-81
2021/12/24 05:09:06;;;;;;;45.58;22.63;;;8.90;99.90;;;;;;5050395;28;20025;-81
2021/12/24 05:11:33;;;;;;;40.47;20.45;;;8.90;99.90;;;;;;5051130;28;20036;-81
2021/12/24 05:13:59;;;;;;;38.45;19.63;;;9.00;99.90;;;;;;5070554;28;20020;-81
2021/12/24 05:16:48;;;;;;;40.58;19.77;;;8.90;99.90;;;;;;5073087;28;20069;-81
2021/12/24 05:22:39;;;;;;;42.08;22.83;;;8.90;99.90;;;;;;5088072;28;20055;-81
2021/12/24 05:25:10;;;;;;;42.65;20.20;;;8.90;99.90;;;;;;5054266;28;20023;-80
2021/12/24 05:27:36;;;;;;;40.47;19.52;;;8.90;99.90;;;;;;5053847;28;20477;-82
2021/12/24 05:30:04;;;;;;;38.15;19.23;;;8.90;99.90;;;;;;5053117;28;20029;-81
2021/12/24 05:32:29;;;;;;;38.85;20.73;;;8.90;99.90;;;;;;5053400;28;20048;-82
2021/12/24 05:34:55;;;;;;;40.85;20.25;;;9.00;99.90;;;;;;5069984;28;20039;-81
2021/12/24 05:37:21;;;;;;;35.78;17.50;;;8.90;99.90;;;;;;5070172;28;20036;-81
2021/12/24 05:39:46;;;;;;;38.85;18.70;;;8.80;99.90;;;;;;5053544;28;20035;-81
2021/12/24 05:42:15;;;;;;;41.92;18.00;;;8.90;99.90;;;;;;5053669;28;20482;-81
2021/12/24 05:44:41;;;;;;;38.38;18.10;;;8.80;99.90;;;;;;5053332;28;20059;-81
2021/12/24 05:47:26;;;;;;;40.42;18.98;;;8.80;99.90;;;;;;5072702;28;20036;-81
2021/12/24 05:49:56;;;;;;;37.38;17.80;;;8.80;99.90;;;;;;5053374;28;20508;-82
2021/12/24 05:52:40;;;;;;;32.42;15.93;;;8.90;99.90;;;;;;5072569;28;20040;-81
2021/12/24 05:55:15;;;;;;;33.42;15.82;;;8.90;99.90;;;;;;5054374;28;20033;-85
2021/12/24 05:57:42;;;;;;;31.45;15.45;;;8.90;99.90;;;;;;5070075;28;20105;-83
2021/12/24 06:00:09;;;;;;;34.22;17.05;;;8.80;99.90;;;;;;5050375;28;20032;-86
2021/12/24 06:02:44;;;;;;;40.53;17.80;;;8.90;99.90;;;;;;5054350;28;20062;-84
2021/12/24 06:05:10;;;;;;;32.85;17.08;;;8.90;99.90;;;;;;5052982;28;20028;-83
2021/12/24 06:07:36;;;;;;;31.08;15.90;;;8.80;99.90;;;;;;5053183;28;20037;-84
2021/12/24 06:10:02;;;;;;;30.25;16.77;;;8.80;99.90;;;;;;5052919;28;20047;-84
2021/12/24 06:12:28;;;;;;;37.05;16.25;;;8.80;99.90;;;;;;5053116;28;20044;-84
2021/12/24 06:15:00;;;;;;;31.27;15.32;;;8.80;99.90;;;;;;5052767;28;20033;-84
2021/12/24 06:17:26;;;;;;;32.60;16.95;;;8.80;99.90;;;;;;5052753;28;20100;-83
2021/12/24 06:19:52;;;;;;;37.55;15.98;;;8.80;99.90;;;;;;5052974;28;20031;-84
2021/12/24 06:22:17;;;;;;;32.58;16.98;;;8.80;99.90;;;;;;5052044;28;20040;-84
2021/12/24 06:24:43;;;;;;;35.33;16.00;;;8.80;99.90;;;;;;5052902;28;20074;-83
2021/12/24 06:27:08;;;;;;;34.28;16.08;;;8.80;99.90;;;;;;5052890;28;20047;-84
2021/12/24 06:29:34;;;;;;;30.30;15.93;;;8.70;99.90;;;;;;5052333;28;20028;-84
2021/12/24 06:32:00;;;;;;;32.75;15.38;;;8.80;99.90;;;;;;5052093;28;20057;-84
2021/12/24 06:34:30;;;;;;;32.50;13.35;;;8.70;99.90;;;;;;5052549;28;20043;-84
2021/12/24 06:36:57;;;;;;;26.52;13.02;;;8.70;99.90;;;;;;5068813;28;20043;-84
2021/12/24 06:39:23;;;;;;;32.10;15.07;;;8.70;99.90;;;;;;5052413;28;20059;-85
2021/12/24 06:41:49;;;;;;;33.70;14.82;;;8.70;99.90;;;;;;5052011;28;20036;-85
2021/12/24 06:44:14;;;;;;;28.75;14.40;;;8.70;99.90;;;;;;5052028;28;20433;-84
2021/12/24 06:46:42;;;;;;;32.05;13.88;;;8.60;99.90;;;;;;5052129;28;20035;-86
2021/12/24 06:49:09;;;;;;;26.33;12.07;;;8.70;99.90;;;;;;5052138;28;20040;-84
2021/12/24 06:51:35;;;;;;;23.83;14.20;;;8.60;99.90;;;;;;5051676;28;20043;-85
2021/12/24 06:54:01;;;;;;;24.92;12.73;;;8.60;99.90;;;;;;5068852;28;20029;-83
2021/12/24 06:56:28;;;;;;;28.38;14.20;;;8.60;99.90;;;;;;5052478;28;20048;-84
2021/12/24 06:58:53;;;;;;;27.00;13.20;;;8.70;99.90;;;;;;5051768;28;20036;-85
2021/12/24 07:01:19;;;;;;;25.92;12.38;;;8.60;99.90;;;;;;5051882;28;20032;-85
2021/12/24 07:03:46;;;;;;;30.73;11.80;;;8.70;99.90;;;;;;5068864;28;20396;-84
2021/12/24 07:06:12;;;;;;;22.83;10.10;;;8.60;99.90;;;;;;5051926;28;20028;-85
2021/12/24 07:08:37;;;;;;;21.27;11.18;;;8.60;99.90;;;;;;5052203;28;20036;-83
2021/12/24 07:11:04;;;;;;;23.92;10.18;;;8.60;99.90;;;;;;5051496;28;20024;-84
2021/12/24 07:13:30;;;;;;;30.42;11.25;;;8.60;99.90;;;;;;5042816;28;20025;-85
2021/12/24 07:15:55;;;;;;;22.70;11.60;;;8.60;99.90;;;;;;5058170;28;20346;-85
2021/12/24 07:18:21;;;;;;;18.65;9.10;;;8.50;99.90;;;;;;5058755;28;20036;-86
2021/12/24 07:20:47;;;;;;;23.58;9.63;;;8.60;99.90;;;;;;5040184;28;20083;-85
2021/12/24 07:23:13;;;;;;;24.45;9.70;;;8.50;99.90;;;;;;5041338;28;20535;-84
2021/12/24 07:25:38;;;;;;;27.60;10.05;;;8.50;99.90;;;;;;5031977;28;20035;-85
2021/12/24 07:28:04;;;;;;;23.48;8.55;;;8.50;99.90;;;;;;5031944;28;20033;-85
2021/12/24 07:30:30;;;;;;;21.33;9.45;;;8.50;99.90;;;;;;5048063;28;20049;-84
2021/12/24 07:32:56;;;;;;;25.20;8.80;;;8.50;99.90;;;;;;5035535;28;20031;-84
2021/12/24 07:35:22;;;;;;;23.30;8.60;;;8.50;99.90;;;;;;5034580;28;20029;-85
2021/12/24 07:37:48;;;;;;;27.60;8.45;;;8.50;99.90;;;;;;5031421;28;20029;-84
2021/12/24 07:40:15;;;;;;;29.38;9.85;;;8.40;99.90;;;;;;5052326;28;20412;-85
2021/12/24 07:42:46;;;;;;;24.02;9.77;;;8.40;99.90;;;;;;5067696;28;20041;-84
2021/12/24 07:45:13;;;;;;;25.88;9.95;;;8.40;99.90;;;;;;5065441;28;20111;-84
2021/12/24 07:47:42;;;;;;;28.55;8.43;;;8.40;99.90;;;;;;5062487;28;20039;-85
2021/12/24 07:51:55;;;;;;;19.90;7.78;;;8.40;99.90;;;;;;5049161;28;20100;-83
2021/12/24 07:53:03;;;;;;;27.77;8.00;;;8.30;99.90;;;;;;5056769;28;20028;-85
2021/12/24 07:55:29;;;;;;;23.85;9.18;;;8.30;99.90;;;;;;5065914;28;20194;-84
2021/12/24 07:57:54;;;;;;;27.33;9.63;;;8.40;99.90;;;;;;5055778;28;20171;-86
2021/12/24 08:00:23;;;;;;;34.08;11.27;;;8.30;99.90;;;;;;5052044;28;20041;-85
2021/12/24 08:02:49;;;;;;;24.70;11.57;;;8.30;99.90;;;;;;5051041;28;20048;-85
2021/12/24 08:05:18;;;;;;;27.52;12.30;;;8.30;99.90;;;;;;5046653;28;20029;-91
2021/12/24 08:07:44;;;;;;;30.60;11.60;;;8.30;99.90;;;;;;5057284;28;20028;-88
2021/12/24 08:10:10;;;;;;;31.58;12.25;;;8.30;99.90;;;;;;5042028;28;20370;-90
2021/12/24 08:12:36;;;;;;;34.17;13.65;;;8.30;99.90;;;;;;5046656;28;20036;-89
2021/12/24 08:15:03;;;;;;;27.38;13.35;;;8.30;99.90;;;;;;5046480;28;20047;-90
2021/12/24 08:17:28;;;;;;;32.67;13.93;;;8.20;99.90;;;;;;5043383;28;20028;-90
2021/12/24 08:19:54;;;;;;;29.90;13.52;;;8.20;99.90;;;;;;5047145;28;20029;-85
2021/12/24 08:22:20;;;;;;;28.92;13.50;;;8.20;99.90;;;;;;5039720;28;20032;-84
2021/12/24 08:24:45;;;;;;;28.15;13.35;;;8.20;99.90;;;;;;5043863;28;20021;-93
2021/12/24 08:27:11;;;;;;;35.30;14.68;;;8.20;99.90;;;;;;5038012;28;20032;-88
2021/12/24 08:29:37;;;;;;;39.10;14.90;;;8.20;99.90;;;;;;5058083;28;20040;-91
2021/12/24 08:32:04;;;;;;;38.40;17.30;;;8.20;99.90;;;;;;5041999;28;20072;-90
2021/12/24 08:34:30;;;;;;;43.17;17.20;;;8.20;99.90;;;;;;5049782;28;20464;-90
2021/12/24 08:36:55;;;;;;;37.90;16.30;;;8.20;99.90;;;;;;5047255;28;20020;-89
2021/12/24 08:39:22;;;;;;;29.70;16.15;;;8.20;99.90;;;;;;5043415;28;20499;-93
2021/12/24 08:41:52;;;;;;;37.60;16.50;;;8.20;99.90;;;;;;5065271;28;20036;-86
2021/12/24 08:44:18;;;;;;;;;;;8.20;99.90;;;;;;5047441;28;20037;-91
2021/12/24 08:46:43;;;;;;;39.53;16.58;;;8.10;99.90;;;;;;5064753;28;19924;-87
2021/12/24 08:49:09;;;;;;;35.60;17.63;;;8.10;99.90;;;;;;5065522;28;20029;-89
2021/12/24 08:51:35;;;;;;;38.28;16.55;;;8.10;99.90;;;;;;5047526;28;20058;-91
2021/12/24 08:54:00;;;;;;;38.30;17.27;;;8.10;99.90;;;;;;5013686;28;20163;-85
2021/12/24 08:56:26;;;;;;;40.30;17.27;;;8.10;99.90;;;;;;5047489;28;20068;-85
2021/12/24 08:58:52;;;;;;;43.80;18.83;;;8.10;99.90;;;;;;5046177;28;20052;-85
2021/12/24 09:01:17;;;;;;;33.20;16.00;;;8.10;99.90;;;;;;5052104;28;20046;-85
2021/12/24 09:03:43;;;;;;;36.47;18.50;;;8.10;99.90;;;;;;5046322;28;20048;-85
2021/12/24 09:06:09;;;;;;;40.50;17.83;;;8.10;99.90;;;;;;5042840;28;20040;-83
2021/12/24 09:08:35;;;;;;;44.95;19.38;;;8.20;99.90;;;;;;5044906;28;20035;-83
2021/12/24 09:11:01;;;;;;;41.38;18.52;;;8.20;99.90;;;;;;5049030;28;20025;-84
2021/12/24 09:13:27;;;;;;;41.10;18.38;;;8.10;99.90;;;;;;5067103;28;20028;-85
2021/12/24 09:15:55;;;;;;;50.28;18.05;;;8.20;99.90;;;;;;5050959;28;20093;-84
2021/12/24 09:18:21;;;;;;;41.40;17.00;;;8.20;99.90;;;;;;5050797;28;20044;-84
2021/12/24 09:20:48;;;;;;;39.72;16.75;;;8.20;99.90;;;;;;5045057;28;20073;-82
2021/12/24 09:23:14;;;;;;;34.10;15.20;;;8.20;99.90;;;;;;5048208;28;20040;-84
2021/12/24 09:25:40;;;;;;;38.75;16.23;;;8.10;99.90;;;;;;5045546;28;20032;-85
2021/12/24 09:28:06;;;;;;;34.08;15.52;;;8.20;99.90;;;;;;5046539;28;20028;-84
2021/12/24 09:30:34;;;;;;;32.60;16.40;;;8.20;99.90;;;;;;5045277;28;20388;-83
2021/12/24 09:33:00;;;;;;;32.20;15.57;;;8.30;99.90;;;;;;5064838;28;20388;-83
2021/12/24 09:35:26;;;;;;;37.83;16.10;;;8.30;99.90;;;;;;5084976;28;20039;-84
2021/12/24 09:37:53;;;;;;;28.92;14.45;;;8.30;99.90;;;;;;5046549;28;20031;-84
2021/12/24 09:40:19;;;;;;;31.30;14.30;;;8.30;99.90;;;;;;5049495;28;20054;-83
2021/12/24 09:42:46;;;;;;;26.55;11.85;;;8.30;99.90;;;;;;5045673;28;20477;-84
2021/12/24 09:45:12;;;;;;;25.10;11.73;;;8.30;99.90;;;;;;5050937;28;20096;-85
2021/12/24 09:47:39;;;;;;;35.28;12.55;;;8.30;99.90;;;;;;5050729;28;20036;-85
2021/12/24 09:50:08;;;;;;;26.92;11.75;;;8.40;99.90;;;;;;5049291;28;20035;-83
2021/12/24 09:52:37;;;;;;;23.20;10.48;;;8.40;99.90;;;;;;5066040;28;20479;-86
2021/12/24 09:55:08;;;;;;;27.92;11.80;;;8.40;99.90;;;;;;5064483;28;20029;-84
2021/12/24 09:57:34;;;;;;;19.50;10.35;;;8.40;99.90;;;;;;5048471;28;20047;-86
2021/12/24 09:59:59;;;;;;;24.15;10.80;;;8.40;99.90;;;;;;5051633;28;20096;-84
2021/12/24 10:02:40;;;;;;;27.30;11.73;;;8.40;99.90;;;;;;5046280;28;20046;-85
2021/12/24 10:05:22;;;;;;;33.70;13.10;;;8.40;99.90;;;;;;5051742;28;20032;-84
2021/12/24 10:07:48;;;;;;;27.85;12.73;;;8.40;99.90;;;;;;5043912;28;20033;-84
2021/12/24 10:10:15;;;;;;;26.52;12.18;;;8.50;99.90;;;;;;5064353;28;20028;-84
2021/12/24 10:12:40;;;;;;;29.45;11.63;;;8.50;99.90;;;;;;5048063;28;20024;-85
2021/12/24 10:15:06;;;;;;;26.67;12.82;;;8.40;99.90;;;;;;5049668;28;20115;-83
2021/12/24 10:17:35;;;;;;;22.08;11.25;;;8.50;99.90;;;;;;5048817;28;20536;-84
2021/12/24 10:20:12;;;;;;;32.03;14.20;;;8.40;99.90;;;;;;5041223;28;20451;-84
2021/12/24 10:22:49;;;;;;;36.03;13.30;;;8.40;99.90;;;;;;5059874;28;20045;-83
2021/12/24 10:25:16;;;;;;;27.10;12.57;;;8.40;99.90;;;;;;5051199;28;20090;-84
2021/12/24 10:27:43;;;;;;;30.35;12.88;;;8.40;99.90;;;;;;5007362;28;20041;-84
2021/12/24 10:30:14;;;;;;;29.05;9.98;;;8.40;99.90;;;;;;5038362;28;20098;-86
2021/12/24 10:32:40;;;;;;;26.67;11.18;;;8.50;99.90;;;;;;5034357;28;20052;-84
2021/12/24 10:35:22;;;;;;;31.50;13.60;;;8.50;99.90;;;;;;5050352;28;20029;-85
2021/12/24 10:38:08;;;;;;;36.25;14.38;;;8.40;99.90;;;;;;5035771;28;20033;-84
2021/12/24 10:40:34;;;;;;;35.78;12.70;;;8.50;99.90;;;;;;5038430;28;20077;-84
2021/12/24 10:42:59;;;;;;;33.67;14.55;;;8.50;99.90;;;;;;5039177;28;20040;-84
2021/12/24 10:45:26;;;;;;;36.35;13.85;;;8.50;99.90;;;;;;5031668;28;20676;-85
2021/12/24 10:47:52;;;;;;;34.45;13.05;;;8.50;99.90;;;;;;5051360;28;20048;-85
2021/12/24 10:53:20;;;;;;;28.13;10.98;;;8.50;99.90;;;;;;5040548;28;20038;-84
2021/12/24 10:55:54;;;;;;;29.85;11.88;;;8.50;99.90;;;;;;5033450;28;20021;-84
2021/12/24 10:58:24;;;;;;;29.95;11.10;;;8.50;99.90;;;;;;5052715;28;20400;-85
2021/12/24 11:00:59;;;;;;;25.98;11.73;;;8.50;99.90;;;;;;5018792;28;20021;-83
2021/12/24 11:03:31;;;;;;;27.25;11.38;;;8.50;99.90;;;;;;5045228;28;20037;-83
2021/12/24 11:06:07;;;;;;;26.13;11.00;;;8.50;99.90;;;;;;5028901;28;20025;-84
2021/12/24 11:08:34;;;;;;;33.10;11.95;;;8.40;99.90;;;;;;5035099;28;20059;-84
2021/12/24 11:11:05;;;;;;;27.63;11.77;;;8.40;99.90;;;;;;5046313;28;20025;-84
2021/12/24 11:13:40;;;;;;;33.85;12.68;;;8.40;99.90;;;;;;5049326;28;20033;-83
2021/12/24 11:16:08;;;;;;;25.42;10.75;;;8.50;99.90;;;;;;5061541;28;20025;-84
2021/12/24 11:18:36;;;;;;;21.70;10.02;;;8.40;99.90;;;;;;5052866;28;20017;-84
2021/12/24 11:21:08;;;;;;;25.90;10.20;;;8.40;99.90;;;;;;5044023;28;20033;-84
2021/12/24 11:23:36;;;;;;;28.02;10.65;;;8.40;99.90;;;;;;4965656;28;20047;-84
2021/12/24 11:26:11;;;;;;;27.58;11.40;;;8.40;99.90;;;;;;5015698;28;20463;-83
2021/12/24 11:28:57;;;;;;;30.83;11.43;;;8.40;99.90;;;;;;5021623;28;20487;-83
2021/12/24 11:31:26;;;;;;;30.30;11.55;;;8.50;99.90;;;;;;4975104;28;20054;-85
2021/12/24 11:33:53;;;;;;;34.38;12.02;;;8.50;99.90;;;;;;4980009;28;20039;-85
2021/12/24 11:36:23;;;;;;;32.17;11.10;;;8.50;99.90;;;;;;4968765;28;20055;-84
2021/12/24 11:38:51;;;;;;;23.98;9.45;;;8.60;99.90;;;;;;4937133;28;20051;-85
2021/12/24 11:41:21;;;;;;;29.08;9.88;;;8.60;99.90;;;;;;4971952;28;20047;-84
2021/12/24 11:43:49;;;;;;;28.37;9.83;;;8.60;99.90;;;;;;4991513;28;20036;-85
2021/12/24 11:46:17;;;;;;;24.88;9.60;;;8.60;99.90;;;;;;4980295;28;20449;-85
2021/12/24 11:48:47;;;;;;;32.05;9.05;;;8.60;99.90;;;;;;4977007;28;20443;-83
2021/12/24 11:51:28;;;;;;;28.98;8.00;;;8.60;99.90;;;;;;4993750;28;20478;-84
2021/12/24 11:54:02;;;;;;;21.08;7.03;;;8.60;99.90;;;;;;4966690;28;20039;-84
2021/12/24 11:56:38;;;;;;;24.88;8.82;;;8.70;99.90;;;;;;4974997;28;20039;-84
2021/12/24 11:59:05;;;;;;;19.05;6.88;;;8.70;99.90;;;;;;4975993;28;20101;-85
2021/12/24 12:01:38;;;;;;;22.73;7.53;;;8.70;99.90;;;;;;4976840;28;20091;-84
2021/12/24 12:04:15;;;;;;;20.45;6.38;;;8.70;99.90;;;;;;4966545;28;20553;-84
2021/12/24 12:06:41;;;;;;;20.55;6.13;;;8.70;99.90;;;;;;4977627;28;20065;-83
2021/12/24 12:09:10;;;;;;;25.55;7.43;;;8.80;99.90;;;;;;5019424;28;20030;-83
2021/12/24 12:11:39;;;;;;;18.75;5.32;;;8.80;99.90;;;;;;5029744;28;20040;-84
2021/12/24 12:14:15;;;;;;;21.42;6.20;;;8.80;99.90;;;;;;5035947;28;20063;-87
2021/12/24 12:16:56;;;;;;;21.20;8.13;;;8.90;99.90;;;;;;5028916;28;20524;-83
2021/12/24 12:25:01;;;;;;;22.83;8.32;;;8.80;99.90;;;;;;5047244;28;20025;-84
2021/12/24 12:27:31;;;;;;;22.65;8.35;;;8.80;99.90;;;;;;5025173;28;20104;-83
2021/12/24 12:29:57;;;;;;;25.65;10.40;;;8.80;99.90;;;;;;5062159;22;20044;-83
2021/12/24 12:32:26;;;;;;;25.50;10.82;;;8.80;99.90;;;;;;5071120;28;20128;-82
2021/12/24 12:34:56;;;;;;;22.75;10.20;;;8.80;99.90;;;;;;5071062;28;20036;-83
2021/12/24 12:37:24;;;;;;;23.23;10.23;;;8.80;99.90;;;;;;5054586;28;20513;-84
2021/12/24 12:40:04;;;;;;;28.33;12.18;;;8.70;99.90;;;;;;5072602;28;20119;-83
2021/12/24 12:42:48;;;;;;;24.70;11.00;;;8.70;99.90;;;;;;5098992;28;20036;-84
2021/12/24 12:45:15;;;;;;;34.15;11.70;;;8.70;99.90;;;;;;5055463;28;20036;-82
2021/12/24 12:47:55;;;;;;;33.53;12.73;;;8.70;99.90;;;;;;5053200;28;20044;-86
2021/12/24 12:50:23;;;;;;;26.25;11.05;;;8.70;99.90;;;;;;5064176;28;20024;-83
2021/12/24 12:52:52;;;;;;;32.47;13.43;;;8.70;99.90;;;;;;5068759;28;20067;-83
2021/12/24 12:55:36;;;;;;;23.00;10.95;;;8.70;99.90;;;;;;5053593;28;20031;-82
2021/12/24 12:58:23;;;;;;;32.13;11.63;;;8.70;99.90;;;;;;5070052;28;20032;-84
2021/12/24 13:01:08;;;;;;;30.15;13.60;;;8.60;99.90;;;;;;5072545;28;20041;-84
2021/12/24 13:04:06;;;;;;;27.30;13.25;;;8.60;99.90;;;;;;5096166;28;20040;-84
2021/12/24 13:06:35;;;;;;;31.83;12.73;;;8.60;99.90;;;;;;5079232;28;20036;-84
2021/12/24 13:09:04;;;;;;;27.77;12.85;;;8.60;99.90;;;;;;5083921;28;20036;-84
2021/12/24 13:11:35;;;;;;;31.98;13.40;;;8.60;99.90;;;;;;5058345;28;20033;-83
2021/12/24 13:14:02;;;;;;;35.30;13.40;;;8.60;99.90;;;;;;5067859;28;20040;-84
2021/12/24 13:16:34;;;;;;;28.95;12.45;;;8.60;99.90;;;;;;5050749;28;20021;-85
2021/12/24 13:24:59;;;;;;;34.53;14.10;;;8.60;99.90;;;;;;5082523;28;20051;-84
2021/12/24 13:27:28;;;;;;;32.03;13.13;;;8.60;99.90;;;;;;5065310;28;20032;-84
2021/12/24 13:30:10;;;;;;;28.23;13.33;;;8.60;99.90;;;;;;5083685;28;20044;-83
2021/12/24 13:32:47;;;;;;;29.55;13.38;;;8.60;99.90;;;;;;5082380;28;20286;-83
2021/12/24 13:35:16;;;;;;;29.95;14.93;;;8.60;99.90;;;;;;5074188;28;21202;-84
2021/12/24 13:37:45;;;;;;;27.52;13.90;;;8.70;99.90;;;;;;5065139;28;20082;-86
2021/12/24 13:40:13;;;;;;;26.40;13.15;;;8.70;99.90;;;;;;5049821;28;20037;-84
2021/12/24 13:42:51;;;;;;;36.95;14.38;;;8.70;99.90;;;;;;5058842;28;20040;-86
2021/12/24 13:45:18;;;;;;;29.00;13.75;;;8.60;99.90;;;;;;5076150;28;20021;-87
2021/12/24 13:55:41;;;;;;;31.67;13.60;;;8.60;99.90;;;;;;5084049;28;20033;-84
2021/12/24 13:58:10;;;;;;;30.73;14.07;;;8.60;99.90;;;;;;5067342;28;20491;-85
2021/12/24 14:00:38;;;;;;;28.60;13.35;;;8.60;99.90;;;;;;5051444;28;20025;-84
2021/12/24 14:03:08;;;;;;;26.77;12.48;;;8.60;99.90;;;;;;5065097;28;20060;-85
2021/12/24 14:05:45;;;;;;;27.85;14.27;;;8.50;99.90;;;;;;5062919;28;20055;-85
2021/12/24 14:08:25;;;;;;;29.80;13.95;;;8.60;99.90;;;;;;5068410;28;20048;-85
2021/12/24 14:11:05;;;;;;;35.25;13.75;;;8.60;99.90;;;;;;5066507;28;20043;-86
2021/12/24 14:13:35;;;;;;;35.58;13.68;;;8.60;99.90;;;;;;5076937;28;20038;-86
2021/12/24 14:24:13;;;;;;;25.52;11.35;;;8.50;99.90;;;;;;5082096;28;20040;-88
2021/12/24 14:26:41;;;;;;;32.47;13.68;;;8.50;99.90;;;;;;5058727;28;20112;-84
2021/12/24 14:29:07;;;;;;;24.83;13.10;;;8.50;99.90;;;;;;5067593;28;20123;-83
2021/12/24 14:31:56;;;;;;;25.27;12.27;;;8.40;99.90;;;;;;5057267;28;20146;-84
2021/12/24 14:34:40;;;;;;;34.27;13.50;;;8.50;99.90;;;;;;5065956;28;20046;-83
2021/12/24 14:37:09;;;;;;;26.45;11.50;;;8.50;99.90;;;;;;5048192;28;20062;-85
2021/12/24 14:39:44;;;;;;;31.80;13.27;;;8.50;99.90;;;;;;5083906;28;20029;-85
2021/12/24 14:42:11;;;;;;;26.08;12.13;;;8.50;99.90;;;;;;5076083;28;20115;-85
2021/12/24 14:44:37;;;;;;;27.95;12.70;;;8.50;99.90;;;;;;5052187;28;20024;-85